createdAt,value
2023-05-29T00:01:01.000Z,6.32
2023-05-29T00:03:27.853Z,6.13
2023-05-29T00:05:54.839Z,6.18
2023-05-29T00:08:21.614Z,5.50
2023-05-29T00:10:48.184Z,5.97
2023-05-29T00:13:14.968Z,5.93
2023-05-29T00:15:42.142Z,6.38
2023-05-29T00:18:08.929Z,6.20
2023-05-29T00:20:35.747Z,5.82
2023-05-29T00:23:07.061Z,6.07
2023-05-29T00:25:33.723Z,5.75
2023-05-29T00:28:00.388Z,5.85
2023-05-29T00:30:27.036Z,5.75
2023-05-29T00:32:55.304Z,5.70
2023-05-29T00:35:22.180Z,5.85
2023-05-29T00:37:48.924Z,5.03
2023-05-29T00:40:15.533Z,6.32
2023-05-29T00:42:42.260Z,5.28
2023-05-29T00:45:09.200Z,4.78
2023-05-29T00:47:36.101Z,5.22
2023-05-29T00:50:03.338Z,5.72
2023-05-29T00:52:30.342Z,5.55
2023-05-29T00:54:58.094Z,5.82
2023-05-29T00:57:25.114Z,5.82
2023-05-29T00:59:51.946Z,5.72
2023-05-29T01:02:19.537Z,5.72
2023-05-29T01:04:46.678Z,5.35
2023-05-29T01:07:14.933Z,5.22
2023-05-29T01:09:41.690Z,5.82
2023-05-29T01:12:46.768Z,5.22
2023-05-29T01:15:22.821Z,5.53
2023-05-29T01:18:09.616Z,4.97
2023-05-29T01:20:42.884Z,5.35
2023-05-29T01:23:24.240Z,4.95
2023-05-29T01:26:08.132Z,4.82
2023-05-29T01:28:43.748Z,5.07
2023-05-29T01:31:13.769Z,5.30
2023-05-29T01:33:41.810Z,5.25
2023-05-29T01:36:12.237Z,5.45
2023-05-29T01:38:38.970Z,5.38
2023-05-29T01:41:05.858Z,5.55
2023-05-29T01:43:33.422Z,5.63
2023-05-29T01:46:00.422Z,5.53
2023-05-29T01:48:28.488Z,5.85
2023-05-29T01:50:57.204Z,5.53
2023-05-29T01:53:25.111Z,5.20
2023-05-29T01:55:52.230Z,4.63
2023-05-29T01:58:20.915Z,5.10
2023-05-29T02:00:49.146Z,5.25
2023-05-29T02:03:15.752Z,5.63
2023-05-29T02:05:42.548Z,5.63
2023-05-29T02:08:09.083Z,5.97
2023-05-29T02:10:35.713Z,5.60
2023-05-29T02:13:02.269Z,5.45
2023-05-29T02:15:28.900Z,5.30
2023-05-29T02:17:56.556Z,6.35
2023-05-29T02:20:23.176Z,5.47
2023-05-29T02:22:49.751Z,5.97
2023-05-29T02:25:16.345Z,5.68
2023-05-29T02:27:43.039Z,5.07
2023-05-29T02:30:09.771Z,4.93
2023-05-29T02:32:36.442Z,4.93
2023-05-29T02:35:06.916Z,5.10
2023-05-29T02:37:33.449Z,5.40
2023-05-29T02:39:59.990Z,5.25
2023-05-29T02:42:26.564Z,5.35
2023-05-29T02:44:53.108Z,5.07
2023-05-29T02:47:19.658Z,5.38
2023-05-29T02:49:46.220Z,5.25
2023-05-29T02:52:12.778Z,5.10
2023-05-29T02:54:39.318Z,5.20
2023-05-29T02:57:06.033Z,5.28
2023-05-29T02:59:33.200Z,5.15
2023-05-29T03:02:00.025Z,4.72
2023-05-29T03:04:27.471Z,4.60
2023-05-29T03:06:54.391Z,5.05
2023-05-29T03:09:21.376Z,4.65
2023-05-29T03:11:51.610Z,4.97
2023-05-29T03:14:19.813Z,4.97
2023-05-29T03:16:46.820Z,4.40
2023-05-29T03:19:13.523Z,4.47
2023-05-29T03:21:40.264Z,4.70
2023-05-29T03:24:07.377Z,5.20
2023-05-29T03:26:37.667Z,4.22
2023-05-29T03:29:04.709Z,4.72
2023-05-29T03:31:33.090Z,4.28
2023-05-29T03:34:00.814Z,5.20
2023-05-29T03:36:37.496Z,4.30
2023-05-29T03:39:04.863Z,4.95
2023-05-29T03:41:31.869Z,4.50
2023-05-29T03:43:58.906Z,4.65
2023-05-29T03:46:28.729Z,5.00
2023-05-29T03:48:55.717Z,4.80
2023-05-29T03:51:22.346Z,4.50
2023-05-29T03:53:50.614Z,5.38
2023-05-29T03:56:18.693Z,5.35
2023-05-29T03:58:45.704Z,4.90
2023-05-29T04:01:13.982Z,4.90
2023-05-29T04:03:40.691Z,5.40
2023-05-29T04:06:07.889Z,4.75
2023-05-29T04:08:35.603Z,5.00
2023-05-29T04:11:04.593Z,4.80
2023-05-29T04:13:31.233Z,5.00
2023-05-29T04:15:58.100Z,5.07
2023-05-29T04:18:24.717Z,5.00
2023-05-29T04:20:51.644Z,5.00
2023-05-29T04:23:18.478Z,4.57
2023-05-29T04:25:45.076Z,4.80
2023-05-29T04:28:13.997Z,4.78
2023-05-29T04:30:40.831Z,4.68
2023-05-29T04:33:08.098Z,5.28
2023-05-29T04:35:37.355Z,5.22
2023-05-29T04:38:08.400Z,4.68
2023-05-29T04:40:35.023Z,5.00
2023-05-29T04:43:03.621Z,4.15
2023-05-29T04:45:42.769Z,5.05
2023-05-29T04:48:09.702Z,4.38
2023-05-29T04:50:37.780Z,4.93
2023-05-29T04:53:04.397Z,5.25
2023-05-29T04:55:30.928Z,4.47
2023-05-29T04:57:58.092Z,5.00
2023-05-29T05:00:26.473Z,4.78
2023-05-29T05:02:53.115Z,4.82
2023-05-29T05:05:19.882Z,5.20
2023-05-29T05:07:46.599Z,5.20
2023-05-29T05:10:14.116Z,4.82
2023-05-29T05:12:41.059Z,5.20
2023-05-29T05:15:08.830Z,3.92
2023-05-29T05:17:36.102Z,4.75
2023-05-29T05:20:02.740Z,5.07
2023-05-29T05:22:29.911Z,5.53
2023-05-29T05:24:57.640Z,6.47
2023-05-29T05:27:24.881Z,4.55
2023-05-29T05:29:52.126Z,5.65
2023-05-29T05:32:19.221Z,6.72
2023-05-29T05:34:48.319Z,4.63
2023-05-29T05:37:15.029Z,5.07
2023-05-29T05:39:43.557Z,4.85
2023-05-29T05:42:10.492Z,5.10
2023-05-29T05:44:54.378Z,4.03
2023-05-29T05:47:21.010Z,4.53
2023-05-29T05:49:47.570Z,5.28
2023-05-29T05:52:14.214Z,4.32
2023-05-29T05:54:40.838Z,6.07
2023-05-29T05:57:07.489Z,5.82
2023-05-29T05:59:36.955Z,4.85
2023-05-29T06:02:07.108Z,5.13
2023-05-29T06:04:36.710Z,4.20
2023-05-29T06:07:03.827Z,4.88
2023-05-29T06:09:30.438Z,8.85
2023-05-29T06:11:57.041Z,7.03
2023-05-29T06:14:24.705Z,5.85
2023-05-29T06:16:51.902Z,5.30
2023-05-29T06:19:18.499Z,4.82
2023-05-29T06:21:54.240Z,3.80
2023-05-29T06:24:21.180Z,4.43
2023-05-29T06:26:48.333Z,3.90
2023-05-29T06:29:16.181Z,3.67
2023-05-29T06:31:42.811Z,4.53
2023-05-29T06:34:09.428Z,4.20
2023-05-29T06:36:36.088Z,4.05
2023-05-29T06:39:02.747Z,3.92
2023-05-29T06:41:29.399Z,3.67
2023-05-29T06:43:56.025Z,3.50
2023-05-29T06:46:22.852Z,3.08
2023-05-29T06:48:49.566Z,3.42
2023-05-29T06:51:17.038Z,4.00
2023-05-29T06:54:12.525Z,2.90
2023-05-29T06:56:39.257Z,3.10
2023-05-29T06:59:06.387Z,2.80
2023-05-29T07:01:33.322Z,3.10
2023-05-29T07:04:04.629Z,2.80
2023-05-29T07:06:32.050Z,2.75
2023-05-29T07:08:59.447Z,2.55
2023-05-29T07:11:27.338Z,3.15
2023-05-29T07:13:55.071Z,3.78
2023-05-29T07:16:25.402Z,2.80
2023-05-29T07:19:02.436Z,2.95
2023-05-29T07:21:32.376Z,3.15
2023-05-29T07:24:00.580Z,2.53
2023-05-29T07:26:27.481Z,3.22
2023-05-29T07:28:54.182Z,2.88
2023-05-29T07:31:20.997Z,2.90
2023-05-29T07:33:50.089Z,3.33
2023-05-29T07:36:18.385Z,3.20
2023-05-29T07:38:46.448Z,2.80
2023-05-29T07:41:16.895Z,2.90
2023-05-29T07:43:53.049Z,2.65
2023-05-29T07:46:20.894Z,3.28
2023-05-29T07:48:50.208Z,3.72
2023-05-29T07:51:18.627Z,3.67
2023-05-29T07:53:47.740Z,5.40
2023-05-29T07:56:15.051Z,3.20
2023-05-29T07:58:42.491Z,3.63
2023-05-29T08:01:09.257Z,3.97
2023-05-29T08:03:36.926Z,5.63
2023-05-29T08:06:25.751Z,3.70
2023-05-29T08:08:53.481Z,3.42
2023-05-29T08:11:23.485Z,2.83
2023-05-29T08:13:50.327Z,3.90
2023-05-29T08:16:18.324Z,3.60
2023-05-29T08:18:45.006Z,3.92
2023-05-29T08:21:11.592Z,4.80
2023-05-29T08:23:38.781Z,3.90
2023-05-29T08:26:05.332Z,3.42
2023-05-29T08:28:31.856Z,3.75
2023-05-29T08:30:58.389Z,3.50
2023-05-29T08:33:24.866Z,4.07
2023-05-29T08:35:51.610Z,3.28
2023-05-29T08:38:18.400Z,3.80
2023-05-29T08:40:45.212Z,3.47
2023-05-29T08:43:17.846Z,3.10
2023-05-29T08:45:45.857Z,3.10
2023-05-29T08:48:13.064Z,3.13
2023-05-29T08:50:49.366Z,3.30
2023-05-29T08:53:17.564Z,2.80
2023-05-29T08:55:44.553Z,3.42
2023-05-29T08:58:12.583Z,3.55
2023-05-29T09:00:39.851Z,3.30
2023-05-29T09:03:06.389Z,3.78
2023-05-29T09:05:33.560Z,3.28
2023-05-29T09:08:00.927Z,3.10
2023-05-29T09:10:27.545Z,3.15
2023-05-29T09:12:54.201Z,3.35
2023-05-29T09:15:23.051Z,3.45
2023-05-29T09:17:59.297Z,3.40
2023-05-29T09:20:26.960Z,3.22
2023-05-29T09:22:55.679Z,3.47
2023-05-29T09:25:28.217Z,3.30
2023-05-29T09:27:59.573Z,3.30
2023-05-29T09:30:50.052Z,3.55
2023-05-29T09:33:17.234Z,3.28
2023-05-29T09:35:46.814Z,2.90
2023-05-29T09:38:37.931Z,3.20
2023-05-29T09:43:34.742Z,3.45
2023-05-29T09:46:02.689Z,2.63
2023-05-29T09:48:30.239Z,3.15
2023-05-29T09:50:59.147Z,2.90
2023-05-29T09:53:26.419Z,3.75
2023-05-29T09:55:54.224Z,3.30
2023-05-29T09:58:21.539Z,3.13
2023-05-29T10:00:49.610Z,3.45
2023-05-29T10:03:18.133Z,3.53
2023-05-29T10:05:50.040Z,3.45
2023-05-29T10:08:19.086Z,3.53
2023-05-29T10:10:49.877Z,4.53
2023-05-29T10:13:17.609Z,11.48
2023-05-29T10:15:46.591Z,3.88
2023-05-29T10:18:46.874Z,3.45
2023-05-29T10:21:13.933Z,2.72
2023-05-29T10:23:46.867Z,3.45
2023-05-29T10:26:32.132Z,3.28
2023-05-29T10:29:25.350Z,2.85
2023-05-29T10:32:13.353Z,3.60
2023-05-29T10:35:12.525Z,3.85
2023-05-29T10:37:49.461Z,2.65
2023-05-29T10:40:17.681Z,3.20
2023-05-29T10:42:55.607Z,3.40
2023-05-29T10:45:31.522Z,2.83
2023-05-29T10:48:07.626Z,3.13
2023-05-29T10:50:38.065Z,3.42
2023-05-29T10:53:05.052Z,2.92
2023-05-29T10:55:36.315Z,3.13
2023-05-29T10:58:13.189Z,3.00
2023-05-29T11:00:43.466Z,3.10
2023-05-29T11:03:11.520Z,3.13
2023-05-29T11:05:57.655Z,2.67
2023-05-29T11:08:34.493Z,3.30
2023-05-29T11:11:01.184Z,3.50
2023-05-29T11:13:36.209Z,3.30
2023-05-29T11:16:07.504Z,3.13
2023-05-29T11:18:43.339Z,3.42
2023-05-29T11:21:33.017Z,3.42
2023-05-29T11:24:06.784Z,3.13
2023-05-29T11:26:37.531Z,5.30
2023-05-29T11:29:06.912Z,3.70
2023-05-29T11:31:35.988Z,3.05
2023-05-29T11:34:05.764Z,3.80
2023-05-29T11:36:36.045Z,3.00
2023-05-29T11:39:03.519Z,3.55
2023-05-29T11:41:30.642Z,3.10
2023-05-29T11:44:03.073Z,3.50
2023-05-29T11:46:33.393Z,2.78
2023-05-29T11:49:00.818Z,2.70
2023-05-29T11:51:28.253Z,2.88
2023-05-29T11:53:59.098Z,3.85
2023-05-29T11:56:27.389Z,2.90
2023-05-29T11:58:57.634Z,2.90
2023-05-29T12:01:25.906Z,3.47
2023-05-29T12:03:53.504Z,2.92
2023-05-29T12:06:38.534Z,3.42
2023-05-29T12:09:06.095Z,3.25
2023-05-29T12:11:32.899Z,2.80
2023-05-29T12:14:03.458Z,3.20
2023-05-29T12:16:32.738Z,3.00
2023-05-29T12:18:59.415Z,3.15
2023-05-29T12:21:28.081Z,3.00
2023-05-29T12:24:06.477Z,3.75
2023-05-29T12:26:40.520Z,2.65
2023-05-29T12:29:07.080Z,3.10
2023-05-29T12:31:35.087Z,3.28
2023-05-29T12:34:08.597Z,2.85
2023-05-29T12:36:35.230Z,2.65
2023-05-29T12:39:07.389Z,2.92
2023-05-29T12:41:39.995Z,2.97
2023-05-29T12:44:07.633Z,3.58
2023-05-29T12:46:44.612Z,3.70
2023-05-29T12:49:22.216Z,3.92
2023-05-29T12:51:49.075Z,3.28
2023-05-29T12:54:17.340Z,3.78
2023-05-29T12:56:44.250Z,3.75
2023-05-29T12:59:11.767Z,3.00
2023-05-29T13:01:39.702Z,3.15
2023-05-29T13:04:09.567Z,3.55
2023-05-29T13:06:38.103Z,3.13
2023-05-29T13:09:06.201Z,2.90
2023-05-29T13:11:33.250Z,3.22
2023-05-29T13:13:59.828Z,3.13
2023-05-29T13:16:26.416Z,3.10
2023-05-29T13:18:53.142Z,3.35
2023-05-29T13:21:19.665Z,2.85
2023-05-29T13:23:46.228Z,3.20
2023-05-29T13:26:12.846Z,3.25
2023-05-29T13:28:39.507Z,3.47
2023-05-29T13:31:06.149Z,2.70
2023-05-29T13:33:32.687Z,3.17
2023-05-29T13:35:59.396Z,3.42
2023-05-29T13:38:26.120Z,3.53
2023-05-29T13:40:52.726Z,2.90
2023-05-29T13:43:20.910Z,3.38
2023-05-29T13:45:49.257Z,2.67
2023-05-29T13:48:15.898Z,3.25
2023-05-29T13:50:42.602Z,3.25
2023-05-29T13:53:09.179Z,2.35
2023-05-29T13:55:35.853Z,2.67
2023-05-29T13:58:02.416Z,2.95
2023-05-29T14:00:29.065Z,2.70
2023-05-29T14:02:55.798Z,2.88
2023-05-29T14:05:22.588Z,2.80
2023-05-29T14:07:49.122Z,2.60
2023-05-29T14:10:16.040Z,2.47
2023-05-29T14:12:42.624Z,2.90
2023-05-29T14:15:10.116Z,2.88
2023-05-29T14:17:36.906Z,2.67
2023-05-29T14:20:05.890Z,2.90
2023-05-29T14:22:33.014Z,2.72
2023-05-29T14:25:01.188Z,3.00
2023-05-29T14:27:27.908Z,3.03
2023-05-29T14:29:54.521Z,3.05
2023-05-29T14:32:21.760Z,3.08
2023-05-29T14:34:48.422Z,3.00
2023-05-29T14:37:15.025Z,2.85
2023-05-29T14:39:41.567Z,3.47
2023-05-29T14:42:08.788Z,3.42
2023-05-29T14:44:35.356Z,2.97
2023-05-29T14:47:02.341Z,3.15
2023-05-29T14:49:35.528Z,3.90
2023-05-29T14:52:04.185Z,3.00
2023-05-29T14:54:31.247Z,2.83
2023-05-29T14:56:58.731Z,3.05
2023-05-29T14:59:26.360Z,2.83
2023-05-29T15:01:54.791Z,2.90
2023-05-29T15:04:21.355Z,2.65
2023-05-29T15:06:55.394Z,3.05
2023-05-29T15:09:29.904Z,3.05
2023-05-29T15:11:56.683Z,3.20
2023-05-29T15:14:23.240Z,3.00
2023-05-29T15:16:50.032Z,3.33
2023-05-29T15:19:16.817Z,2.67
2023-05-29T15:21:43.389Z,3.05
2023-05-29T15:24:10.002Z,3.45
2023-05-29T15:26:37.925Z,3.10
2023-05-29T15:29:04.519Z,3.28
2023-05-29T15:31:31.388Z,2.85
2023-05-29T15:33:58.140Z,2.95
2023-05-29T15:36:24.838Z,3.28
2023-05-29T15:38:51.629Z,3.00
2023-05-29T15:41:18.222Z,2.78
2023-05-29T15:43:44.760Z,2.80
2023-05-29T15:46:11.404Z,3.22
2023-05-29T15:48:38.163Z,3.08
2023-05-29T15:51:04.760Z,2.90
2023-05-29T15:53:31.302Z,2.50
2023-05-29T15:55:58.030Z,2.80
2023-05-29T15:58:25.330Z,3.55
2023-05-29T16:00:51.944Z,2.78
2023-05-29T16:03:18.590Z,3.58
2023-05-29T16:05:45.361Z,3.10
2023-05-29T16:08:11.955Z,3.03
2023-05-29T16:10:41.776Z,3.05
2023-05-29T16:13:08.472Z,3.20
2023-05-29T16:15:35.062Z,3.42
2023-05-29T16:18:02.205Z,3.13
2023-05-29T16:20:28.841Z,3.15
2023-05-29T16:22:57.006Z,2.85
2023-05-29T16:25:23.904Z,2.85
2023-05-29T16:27:50.689Z,2.92
2023-05-29T16:30:17.336Z,2.35
2023-05-29T16:32:44.004Z,3.15
2023-05-29T16:35:11.132Z,2.92
2023-05-29T16:37:38.105Z,2.85
2023-05-29T16:40:05.207Z,2.88
2023-05-29T16:42:31.963Z,3.03
2023-05-29T16:44:58.503Z,2.67
2023-05-29T16:47:25.386Z,3.17
2023-05-29T16:49:52.196Z,3.10
2023-05-29T16:52:21.023Z,2.92
2023-05-29T16:54:48.974Z,3.03
2023-05-29T16:57:16.773Z,2.55
2023-05-29T16:59:43.318Z,3.17
2023-05-29T17:02:09.924Z,3.25
2023-05-29T17:04:37.112Z,3.50
2023-05-29T17:07:04.370Z,2.90
2023-05-29T17:09:31.356Z,3.03
2023-05-29T17:11:58.385Z,3.05
2023-05-29T17:14:25.287Z,2.45
2023-05-29T17:16:52.445Z,3.08
2023-05-29T17:19:19.517Z,3.28
2023-05-29T17:21:48.112Z,2.95
2023-05-29T17:24:15.899Z,2.67
2023-05-29T17:26:42.626Z,4.15
2023-05-29T17:29:09.385Z,3.10
2023-05-29T17:31:36.471Z,2.97
2023-05-29T17:34:03.046Z,3.38
2023-05-29T17:36:29.628Z,3.10
2023-05-29T17:38:56.173Z,3.20
2023-05-29T17:41:22.803Z,3.10
2023-05-29T17:43:49.425Z,3.50
2023-05-29T17:46:19.455Z,6.55
2023-05-29T17:48:49.303Z,4.22
2023-05-29T17:51:17.107Z,3.58
2023-05-29T17:53:44.336Z,3.55
2023-05-29T17:56:10.957Z,3.40
2023-05-29T17:58:37.677Z,3.05
2023-05-29T18:01:04.467Z,3.00
2023-05-29T18:03:31.179Z,3.50
2023-05-29T18:05:58.172Z,3.15
2023-05-29T18:08:24.949Z,3.05
2023-05-29T18:10:51.905Z,3.20
2023-05-29T18:13:18.583Z,2.78
2023-05-29T18:15:45.227Z,3.78
2023-05-29T18:18:12.244Z,3.63
2023-05-29T18:20:38.962Z,13.18
2023-05-29T18:23:05.571Z,4.25
2023-05-29T18:25:32.964Z,3.33
2023-05-29T18:28:00.108Z,3.40
2023-05-29T18:30:26.678Z,3.28
2023-05-29T18:32:54.761Z,3.58
2023-05-29T18:35:21.447Z,3.58
2023-05-29T18:37:49.124Z,3.58
2023-05-29T18:40:16.849Z,3.65
2023-05-29T18:42:43.404Z,3.22
2023-05-29T18:45:10.602Z,3.40
2023-05-29T18:47:37.258Z,4.10
2023-05-29T18:50:04.080Z,3.33
2023-05-29T18:52:30.893Z,3.53
2023-05-29T18:54:57.483Z,3.58
2023-05-29T18:57:24.080Z,3.53
2023-05-29T18:59:54.207Z,3.33
2023-05-29T19:02:20.908Z,4.10
2023-05-29T19:04:47.457Z,3.53
2023-05-29T19:07:15.037Z,4.20
2023-05-29T19:09:43.128Z,3.55
2023-05-29T19:12:10.548Z,3.80
2023-05-29T19:14:37.457Z,3.15
2023-05-29T19:17:08.349Z,3.58
2023-05-29T19:19:40.278Z,3.38
2023-05-29T19:22:07.461Z,3.58
2023-05-29T19:24:34.205Z,3.58
2023-05-29T19:27:00.858Z,3.67
2023-05-29T19:29:27.403Z,3.33
2023-05-29T19:31:54.009Z,3.65
2023-05-29T19:34:20.620Z,3.70
2023-05-29T19:36:47.296Z,3.58
2023-05-29T19:39:13.774Z,3.45
2023-05-29T19:41:41.845Z,4.07
2023-05-29T19:44:09.290Z,3.42
2023-05-29T19:46:39.977Z,4.30
2023-05-29T19:49:06.821Z,3.88
2023-05-29T19:51:34.297Z,3.55
2023-05-29T19:54:01.284Z,3.60
2023-05-29T19:56:29.326Z,3.40
2023-05-29T19:58:56.239Z,3.45
2023-05-29T20:01:23.251Z,3.42
2023-05-29T20:03:50.567Z,3.10
2023-05-29T20:06:18.372Z,3.60
2023-05-29T20:08:45.105Z,3.38
2023-05-29T20:11:11.770Z,3.65
2023-05-29T20:13:38.334Z,3.22
2023-05-29T20:16:05.096Z,3.53
2023-05-29T20:18:32.888Z,3.67
2023-05-29T20:20:59.874Z,3.50
2023-05-29T20:23:26.825Z,3.50
2023-05-29T20:25:53.326Z,3.22
2023-05-29T20:28:21.591Z,3.65
2023-05-29T20:30:48.459Z,3.28
2023-05-29T20:33:15.087Z,3.38
2023-05-29T20:35:42.609Z,3.50
2023-05-29T20:38:09.213Z,3.15
2023-05-29T20:40:37.289Z,4.13
2023-05-29T20:43:07.349Z,3.30
2023-05-29T20:45:34.482Z,3.03
2023-05-29T20:48:01.278Z,3.45
2023-05-29T20:50:28.181Z,3.60
2023-05-29T20:52:55.193Z,3.00
2023-05-29T20:55:22.127Z,3.58
2023-05-29T20:57:48.756Z,3.20
2023-05-29T21:00:15.677Z,3.60
2023-05-29T21:02:43.022Z,3.60
2023-05-29T21:05:10.469Z,3.60
2023-05-29T21:07:38.319Z,3.38
2023-05-29T21:10:06.461Z,3.80
2023-05-29T21:12:33.689Z,3.70
2023-05-29T21:15:01.706Z,3.75
2023-05-29T21:17:28.662Z,3.42
2023-05-29T21:19:55.664Z,3.30
2023-05-29T21:22:22.848Z,3.50
2023-05-29T21:24:49.387Z,3.53
2023-05-29T21:27:16.626Z,4.03
2023-05-29T21:29:43.294Z,3.35
2023-05-29T21:32:10.244Z,3.78
2023-05-29T21:34:36.829Z,3.83
2023-05-29T21:37:04.973Z,3.90
2023-05-29T21:39:31.782Z,3.65
2023-05-29T21:41:58.450Z,3.40
2023-05-29T21:44:26.943Z,3.28
2023-05-29T21:46:53.507Z,3.42
2023-05-29T21:49:20.118Z,3.22
2023-05-29T21:51:46.777Z,3.50
2023-05-29T21:54:13.273Z,3.30
2023-05-29T21:56:39.993Z,3.40
2023-05-29T21:59:07.583Z,3.50
2023-05-29T22:01:34.352Z,3.40
2023-05-29T22:04:02.387Z,4.38
2023-05-29T22:06:30.611Z,3.65
2023-05-29T22:08:57.224Z,3.38
2023-05-29T22:11:27.004Z,3.38
2023-05-29T22:13:54.191Z,3.03
2023-05-29T22:16:20.839Z,3.50
2023-05-29T22:19:03.867Z,3.45
2023-05-29T22:21:33.416Z,3.65
2023-05-29T22:24:02.494Z,3.47
2023-05-29T22:26:30.249Z,3.03
2023-05-29T22:28:57.130Z,3.35
2023-05-29T22:31:24.237Z,3.08
2023-05-29T22:33:51.455Z,3.10
2023-05-29T22:36:19.177Z,3.30
2023-05-29T22:38:46.194Z,3.67
2023-05-29T22:41:12.826Z,3.22
2023-05-29T22:43:39.931Z,3.10
2023-05-29T22:46:07.110Z,3.15
2023-05-29T22:48:34.257Z,2.75
2023-05-29T22:51:04.950Z,3.30
2023-05-29T22:53:33.948Z,3.72
2023-05-29T22:56:01.415Z,3.28
2023-05-29T22:58:28.179Z,3.08
2023-05-29T23:00:54.964Z,3.42
2023-05-29T23:03:22.075Z,3.15
2023-05-29T23:05:49.945Z,2.83
2023-05-29T23:08:16.591Z,3.45
2023-05-29T23:10:43.396Z,3.50
2023-05-29T23:13:09.936Z,3.00
2023-05-29T23:15:36.531Z,3.22
2023-05-29T23:18:03.923Z,3.20
2023-05-29T23:20:30.589Z,3.05
2023-05-29T23:22:57.272Z,3.10
2023-05-29T23:25:25.385Z,3.00
2023-05-29T23:27:52.247Z,3.10
2023-05-29T23:30:18.968Z,2.72
2023-05-29T23:32:45.734Z,2.78
2023-05-29T23:35:12.418Z,3.50
2023-05-29T23:37:38.936Z,3.10
2023-05-29T23:40:06.540Z,3.20
2023-05-29T23:42:33.157Z,2.55
2023-05-29T23:44:59.675Z,3.28
2023-05-29T23:47:26.544Z,3.13
2023-05-29T23:49:53.129Z,3.08
2023-05-29T23:52:19.658Z,2.97
2023-05-29T23:54:46.226Z,3.30
2023-05-29T23:57:12.893Z,2.97
2023-05-29T23:59:40.329Z,3.00
